Time,TemperatureF,DewpointF,PressureIn,WindDirection,WindDirectionDegrees,WindSpeedMPH,WindSpeedGustMPH,Humidity,HourlyPrecipIn,Conditions,Clouds,dailyrainin,SoftwareType,DateUTC
2013-08-11 00:03:00,51.4,46.7,29.81,SSW,202,0.0,-999.0,84,-99.99,,,0.00,Acu-Link.com,2013-08-11 08:03:00,
2013-08-11 00:35:00,50.9,46.6,29.81,SSW,202,0.0,-999.0,85,-99.99,,,0.00,Acu-Link.com,2013-08-11 08:35:00,
2013-08-11 00:51:00,49.5,45.2,29.82,NE,45,4.2,-999.0,85,-99.99,,,0.00,Acu-Link.com,2013-08-11 08:51:00,
2013-08-11 01:06:00,48.4,45.9,29.82,NE,45,1.7,-999.0,91,-99.99,,,0.00,Acu-Link.com,2013-08-11 09:06:00,
2013-08-11 01:51:00,47.1,45.5,29.84,NE,45,0.0,-999.0,94,-99.99,,,0.00,Acu-Link.com,2013-08-11 09:51:00,
2013-08-11 02:06:00,45.1,44.3,29.85,NNE,22,2.2,-999.0,97,-99.99,,,0.00,Acu-Link.com,2013-08-11 10:06:00,
2013-08-11 02:22:00,44.4,43.6,29.86,ESE,112,1.7,-999.0,97,-99.99,,,0.00,Acu-Link.com,2013-08-11 10:22:00,
2013-08-11 02:37:00,43.7,42.9,29.86,ENE,67,0.0,-999.0,97,-99.99,,,0.00,Acu-Link.com,2013-08-11 10:37:00,
2013-08-11 02:52:00,42.3,41.2,29.87,NNW,337,0.0,-999.0,96,-99.99,,,0.00,Acu-Link.com,2013-08-11 10:52:00,
2013-08-11 03:07:00,42.3,41.8,29.87,ESE,112,3.2,-999.0,98,-99.99,,,0.00,Acu-Link.com,2013-08-11 11:07:00,
2013-08-11 03:22:00,41.7,41.2,29.87,West,270,0.0,-999.0,98,-99.99,,,0.00,Acu-Link.com,2013-08-11 11:22:00,
2013-08-11 03:37:00,41.0,40.5,29.89,ESE,112,1.7,-999.0,98,-99.99,,,0.00,Acu-Link.com,2013-08-11 11:37:00,
2013-08-11 03:52:00,41.2,40.7,29.89,South,180,0.0,-999.0,98,-99.99,,,0.00,Acu-Link.com,2013-08-11 11:52:00,
2013-08-11 04:08:00,41.4,40.9,29.89,NW,315,0.0,-999.0,98,-99.99,,,0.00,Acu-Link.com,2013-08-11 12:08:00,
2013-08-11 04:23:00,39.6,39.1,29.89,East,90,0.0,-999.0,98,-99.99,,,0.00,Acu-Link.com,2013-08-11 12:23:00,
2013-08-11 04:38:00,39.9,39.4,29.90,WNW,292,1.7,-999.0,98,-99.99,,,0.00,Acu-Link.com,2013-08-11 12:38:00,
2013-08-11 04:53:00,39.6,39.1,29.90,North,0,1.1,-999.0,98,-99.99,,,0.00,Acu-Link.com,2013-08-11 12:53:00,
2013-08-11 05:24:00,39.2,38.7,29.90,West,270,2.2,-999.0,98,-99.99,,,0.00,Acu-Link.com,2013-08-11 13:24:00,
2013-08-11 05:39:00,40.6,40.1,29.89,NW,315,3.2,-999.0,98,-99.99,,,0.00,Acu-Link.com,2013-08-11 13:39:00,
2013-08-11 05:54:00,40.5,40.0,29.90,NE,45,1.7,-999.0,98,-99.99,,,0.00,Acu-Link.com,2013-08-11 13:54:00,
2013-08-11 06:09:00,40.6,40.1,29.90,NW,315,2.7,-999.0,98,-99.99,,,0.00,Acu-Link.com,2013-08-11 14:09:00,
2013-08-11 06:25:00,41.7,41.2,29.90,NW,315,4.7,-999.0,98,-99.99,,,0.00,Acu-Link.com,2013-08-11 14:25:00,
2013-08-11 06:40:00,42.3,41.8,29.89,ESE,112,0.0,-999.0,98,-99.99,,,0.00,Acu-Link.com,2013-08-11 14:40:00,
2013-08-11 06:55:00,43.2,42.7,29.89,SSW,202,0.0,-999.0,98,-99.99,,,0.00,Acu-Link.com,2013-08-11 14:55:00,
2013-08-11 07:10:00,43.9,43.4,29.89,WNW,292,0.0,-999.0,98,-99.99,,,0.00,Acu-Link.com,2013-08-11 15:10:00,
2013-08-11 07:25:00,45.0,44.5,29.89,ESE,112,2.2,-999.0,98,-99.99,,,0.00,Acu-Link.com,2013-08-11 15:25:00,
2013-08-11 07:41:00,49.3,47.1,29.89,ENE,67,0.0,-999.0,92,-99.99,,,0.00,Acu-Link.com,2013-08-11 15:41:00,
2013-08-11 08:11:00,53.6,48.2,29.88,NE,45,1.1,-999.0,82,-99.99,,,0.00,Acu-Link.com,2013-08-11 16:11:00,
2013-08-11 08:41:00,59.0,49.2,29.88,South,180,2.7,-999.0,70,-99.99,,,0.00,Acu-Link.com,2013-08-11 16:41:00,
2013-08-11 08:57:00,55.8,48.3,29.87,WNW,292,0.0,-999.0,76,-99.99,,,0.00,Acu-Link.com,2013-08-11 16:57:00,
2013-08-11 09:12:00,56.1,49.3,29.86,ENE,67,1.7,-999.0,78,-99.99,,,0.00,Acu-Link.com,2013-08-11 17:12:00,
2013-08-11 09:27:00,57.4,49.9,29.86,South,180,0.0,-999.0,76,-99.99,,,0.00,Acu-Link.com,2013-08-11 17:27:00,
2013-08-11 09:57:00,60.1,51.0,29.85,NW,315,3.2,-999.0,72,-99.99,,,0.00,Acu-Link.com,2013-08-11 17:57:00,
2013-08-11 10:13:00,62.6,51.5,29.85,SSE,157,1.1,-999.0,67,-99.99,,,0.00,Acu-Link.com,2013-08-11 18:13:00,
2013-08-11 10:28:00,62.1,51.4,29.84,SW,225,2.7,-999.0,68,-99.99,,,0.00,Acu-Link.com,2013-08-11 18:28:00,
2013-08-11 10:43:00,62.4,52.5,29.85,SSW,202,3.2,-999.0,70,-99.99,,,0.00,Acu-Link.com,2013-08-11 18:43:00,
2013-08-11 10:58:00,62.2,52.7,29.85,SSW,202,2.7,-999.0,71,-99.99,,,0.00,Acu-Link.com,2013-08-11 18:58:00,
2013-08-11 11:29:00,66.4,53.4,29.81,WSW,247,3.7,-999.0,63,-99.99,,,0.00,Acu-Link.com,2013-08-11 19:29:00,
2013-08-11 11:44:00,66.0,53.5,29.82,SSW,202,3.7,-999.0,64,-99.99,,,0.00,Acu-Link.com,2013-08-11 19:44:00,
2013-08-11 12:15:00,66.2,51.9,29.84,SW,225,2.2,-999.0,60,-99.99,,,0.00,Acu-Link.com,2013-08-11 20:15:00,
2013-08-11 12:30:00,67.1,51.4,29.82,West,270,2.7,-999.0,57,-99.99,,,0.00,Acu-Link.com,2013-08-11 20:30:00,
2013-08-11 12:45:00,73.0,51.6,29.81,NNW,337,3.2,-999.0,47,-99.99,,,0.00,Acu-Link.com,2013-08-11 20:45:00,
2013-08-11 13:00:00,72.3,50.3,29.80,West,270,3.7,-999.0,46,-99.99,,,0.00,Acu-Link.com,2013-08-11 21:00:00,
2013-08-11 13:16:00,74.7,49.4,29.80,NNW,337,3.2,-999.0,41,-99.99,,,0.00,Acu-Link.com,2013-08-11 21:16:00,
2013-08-11 13:31:00,75.9,50.5,29.80,ENE,67,7.3,-999.0,41,-99.99,,,0.00,Acu-Link.com,2013-08-11 21:31:00,
2013-08-11 13:46:00,73.9,50.0,29.79,WSW,247,4.2,-999.0,43,-99.99,,,0.00,Acu-Link.com,2013-08-11 21:46:00,
2013-08-11 14:01:00,75.4,51.3,29.79,SSE,157,6.3,-999.0,43,-99.99,,,0.00,Acu-Link.com,2013-08-11 22:01:00,
2013-08-11 14:47:00,75.2,51.8,29.78,WSW,247,9.9,-999.0,44,-99.99,,,0.00,Acu-Link.com,2013-08-11 22:47:00,
2013-08-11 15:03:00,74.3,51.6,29.78,West,270,7.3,-999.0,45,-99.99,,,0.00,Acu-Link.com,2013-08-11 23:03:00,
2013-08-11 15:33:00,76.6,50.5,29.77,NW,315,3.7,-999.0,40,-99.99,,,0.00,Acu-Link.com,2013-08-11 23:33:00,
2013-08-11 15:48:00,76.3,51.5,29.76,SW,225,5.8,-999.0,42,-99.99,,,0.00,Acu-Link.com,2013-08-11 23:48:00,
2013-08-11 16:03:00,75.4,52.0,29.76,West,270,5.8,-999.0,44,-99.99,,,0.00,Acu-Link.com,2013-08-12 00:03:00,
2013-08-11 16:19:00,75.0,52.2,29.75,WSW,247,6.8,-999.0,45,-99.99,,,0.00,Acu-Link.com,2013-08-12 00:19:00,
2013-08-11 16:49:00,74.5,52.9,29.75,West,270,3.2,-999.0,47,-99.99,,,0.00,Acu-Link.com,2013-08-12 00:49:00,
2013-08-11 17:04:00,75.7,52.2,29.75,SW,225,4.2,-999.0,44,-99.99,,,0.00,Acu-Link.com,2013-08-12 01:04:00,
2013-08-11 17:19:00,75.6,51.5,29.75,WSW,247,2.7,-999.0,43,-99.99,,,0.00,Acu-Link.com,2013-08-12 01:19:00,
2013-08-11 18:05:00,74.5,52.9,29.74,WNW,292,2.7,-999.0,47,-99.99,,,0.00,Acu-Link.com,2013-08-12 02:05:00,
2013-08-11 18:20:00,73.8,52.9,29.74,WNW,292,6.8,-999.0,48,-99.99,,,0.00,Acu-Link.com,2013-08-12 02:20:00,
2013-08-11 18:36:00,72.5,52.2,29.75,NW,315,5.8,-999.0,49,-99.99,,,0.00,Acu-Link.com,2013-08-12 02:36:00,
2013-08-11 18:51:00,71.8,52.1,29.73,West,270,5.3,-999.0,50,-99.99,,,0.00,Acu-Link.com,2013-08-12 02:51:00,
2013-08-11 19:06:00,71.6,52.0,29.75,WNW,292,3.7,-999.0,50,-99.99,,,0.00,Acu-Link.com,2013-08-12 03:06:00,
2013-08-11 19:21:00,71.2,52.1,29.75,WSW,247,3.7,-999.0,51,-99.99,,,0.00,Acu-Link.com,2013-08-12 03:21:00,
2013-08-11 19:36:00,70.7,53.7,29.75,WSW,247,3.7,-999.0,55,-99.99,,,0.00,Acu-Link.com,2013-08-12 03:36:00,
2013-08-11 19:52:00,69.6,54.6,29.75,WSW,247,2.7,-999.0,59,-99.99,,,0.00,Acu-Link.com,2013-08-12 03:52:00,
2013-08-11 20:07:00,68.7,54.7,29.75,West,270,4.2,-999.0,61,-99.99,,,0.00,Acu-Link.com,2013-08-12 04:07:00,
2013-08-11 20:22:00,68.0,54.0,29.75,SW,225,6.8,-999.0,61,-99.99,,,0.00,Acu-Link.com,2013-08-12 04:22:00,
2013-08-11 20:37:00,66.2,52.3,29.75,West,270,3.2,-999.0,61,-99.99,,,0.00,Acu-Link.com,2013-08-12 04:37:00,
2013-08-11 20:52:00,67.1,53.2,29.75,WSW,247,4.7,-999.0,61,-99.99,,,0.00,Acu-Link.com,2013-08-12 04:52:00,
2013-08-11 21:08:00,66.2,53.2,29.76,SW,225,2.7,-999.0,63,-99.99,,,0.00,Acu-Link.com,2013-08-12 05:08:00,
2013-08-11 21:23:00,65.3,53.2,29.76,SW,225,1.7,-999.0,65,-99.99,,,0.00,Acu-Link.com,2013-08-12 05:23:00,
2013-08-11 21:38:00,65.1,53.5,29.76,West,270,2.2,-999.0,66,-99.99,,,0.00,Acu-Link.com,2013-08-12 05:38:00,
2013-08-11 21:53:00,64.8,53.2,29.76,SW,225,4.2,-999.0,66,-99.99,,,0.00,Acu-Link.com,2013-08-12 05:53:00,
2013-08-11 22:08:00,64.4,53.2,29.77,West,270,4.7,-999.0,67,-99.99,,,0.00,Acu-Link.com,2013-08-12 06:08:00,
2013-08-11 22:24:00,64.2,53.0,29.78,WSW,247,4.7,-999.0,67,-99.99,,,0.00,Acu-Link.com,2013-08-12 06:24:00,
2013-08-11 22:39:00,63.7,52.5,29.78,SSW,202,2.2,-999.0,67,-99.99,,,0.00,Acu-Link.com,2013-08-12 06:39:00,
2013-08-11 22:54:00,63.0,52.7,29.78,South,180,2.2,-999.0,69,-99.99,,,0.00,Acu-Link.com,2013-08-12 06:54:00,
2013-08-11 23:09:00,62.6,52.7,29.78,ESE,112,3.2,-999.0,70,-99.99,,,0.00,Acu-Link.com,2013-08-12 07:09:00,
2013-08-11 23:25:00,62.6,52.3,29.78,SSE,157,2.7,-999.0,69,-99.99,,,0.00,Acu-Link.com,2013-08-12 07:25:00,
2013-08-11 23:40:00,61.7,52.6,29.79,SSE,157,3.2,-999.0,72,-99.99,,,0.00,Acu-Link.com,2013-08-12 07:40:00,
2013-08-11 23:55:00,61.5,52.8,29.79,SSE,157,2.7,-999.0,73,-99.99,,,0.00,Acu-Link.com,2013-08-12 07:55:00,